Talitha — ZCAN7 — position and weather

sailwx.info

Track history (hours):
 
Tides and Currents Weather Stations Pressure Air Temp Water Temp Dewpoint Dewpoint Depression Visibility Wind Speed Wind Dir Waves Ship Positions

Talitha

Last reported at 2014-Oct-01 22:33 UTC. Time now 2014-Oct-02 00:31 UTC.
Position N 43°17' E 006°38'.

Length 80 m; draft 4.7 m.

Type: Pleasure craft. MMSI: 310051000.

Date/timePositionNaut miles runAvg speedWind from/ knotsBaromVisibWave heightAir tempDewpointWater temp
2014-Oct-01 22:33N 43°17' E 006°38'0 0.0
2014-Oct-01 21:09N 43°17' E 006°38'0 0.0
2014-Oct-01 19:21N 43°17' E 006°38'0 0.0
2014-Oct-01 18:27N 43°17' E 006°38'0 0.0
2014-Oct-01 17:27N 43°17' E 006°38'0 0.0
2014-Oct-01 16:33N 43°17' E 006°38'0 0.0
2014-Oct-01 15:33N 43°17' E 006°38'0 0.0
2014-Oct-01 14:33N 43°17' E 006°38'0 0.0
2014-Oct-01 13:27N 43°17' E 006°38'0 0.0
2014-Oct-01 11:33N 43°17' E 006°38'0 0.0
2014-Oct-01 08:27N 43°17' E 006°38'0 0.0
2014-Sep-30 12:17N 43°17' E 006°37'0 0.0
2014-Sep-30 11:32N 43°17' E 006°37'0 0.0
2014-Sep-30 10:14N 43°16' E 006°37'0 0.0
2014-Sep-30 09:20N 43°17' E 006°37'0 0.0
2014-Sep-30 08:11N 43°16' E 006°37'0 0.0
2014-Sep-30 07:12N 43°16' E 006°37'0 0.0
2014-Sep-30 06:30N 43°17' E 006°37'0 0.0
2014-Sep-30 05:05N 43°16' E 006°38'0 0.0
2014-Sep-30 01:29N 43°16' E 006°37'0 0.0
2014-Sep-29 23:32N 43°17' E 006°37'0 0.0
2014-Sep-29 22:17N 43°17' E 006°37'0 0.0
2014-Sep-29 21:23N 43°17' E 006°37'0 0.0
2014-Sep-29 20:26N 43°17' E 006°37'0 0.0
2014-Sep-29 19:32N 43°16' E 006°37'0 0.0
2014-Sep-29 17:17N 43°17' E 006°37'0 0.1
2014-Sep-29 16:26N 43°17' E 006°38'1 1.5
2014-Sep-29 15:27N 43°16' E 006°40'0 0.0
2014-Sep-29 14:24N 43°16' E 006°40'0 0.0
2014-Sep-29 13:33N 43°16' E 006°40'0 0.0
2014-Sep-29 12:33N 43°16' E 006°40'0 0.0
2014-Sep-29 11:33N 43°16' E 006°40'0 0.0
2014-Sep-29 10:33N 43°16' E 006°40'0 0.0
2014-Sep-29 09:27N 43°16' E 006°40'0 0.0
2014-Sep-29 08:27N 43°16' E 006°40'1 1.3
2014-Sep-29 07:20N 43°17' E 006°38'0 0.0
2014-Sep-29 05:17N 43°17' E 006°38'0 0.0
2014-Sep-29 04:11N 43°17' E 006°38'0 0.0
2014-Sep-29 03:23N 43°17' E 006°38'0 0.0
2014-Sep-29 02:11N 43°17' E 006°38'0 0.0
2014-Sep-29 01:32N 43°17' E 006°38'0 0.0
2014-Sep-29 00:17N 43°17' E 006°38'0 0.0
2014-Sep-28 23:29N 43°17' E 006°38'0 0.0
2014-Sep-28 22:26N 43°17' E 006°38'0 0.0
2014-Sep-28 21:29N 43°17' E 006°38'0 0.0
2014-Sep-28 19:23N 43°17' E 006°38'0 0.0
2014-Sep-28 17:23N 43°17' E 006°38'0 0.0
2014-Sep-28 16:29N 43°17' E 006°38'0 0.0
2014-Sep-28 15:29N 43°17' E 006°38'0 0.0
2014-Sep-28 14:23N 43°17' E 006°38'810.0
2014-Sep-28 13:34N 43°21' E 006°47'1312.6
2014-Sep-28 12:33N 43°28' E 007°02'1312.6
2014-Sep-28 11:33N 43°37' E 007°14'5 4.9
2014-Sep-28 10:31N 43°42' E 007°17'0 0.0
2014-Sep-28 06:13N 43°42' E 007°17'0 0.0
2014-Sep-28 05:31N 43°42' E 007°17'0 0.0
2014-Sep-28 04:25N 43°42' E 007°17'0 0.0
2014-Sep-28 03:31N 43°42' E 007°17'0 0.0
2014-Sep-28 02:31N 43°42' E 007°17'0 0.0
2014-Sep-28 01:31N 43°42' E 007°17'0 0.0
2014-Sep-28 00:31N 43°42' E 007°17'0 0.0
2014-Sep-27 23:25N 43°42' E 007°17'0 0.0
2014-Sep-27 22:31N 43°42' E 007°17'0 0.0
2014-Sep-27 21:31N 43°42' E 007°17'0 0.0
2014-Sep-27 20:25N 43°42' E 007°17'0 0.0
2014-Sep-27 19:31N 43°42' E 007°17'0 0.0
2014-Sep-27 18:25N 43°42' E 007°17'0 0.0
2014-Sep-27 17:19N 43°42' E 007°17'0 0.0
2014-Sep-27 16:25N 43°42' E 007°17'0 0.0
2014-Sep-27 15:31N 43°42' E 007°17'0 0.0
2014-Sep-27 14:19N 43°42' E 007°17'0 0.0
2014-Sep-27 11:25N 43°42' E 007°17'0 0.0
2014-Sep-27 10:31N 43°42' E 007°17'0 0.0
2014-Sep-27 07:07N 43°42' E 007°17'0 0.0
2014-Sep-27 06:31N 43°42' E 007°17'0 0.0
2014-Sep-27 05:25N 43°42' E 007°17'0 0.0
2014-Sep-27 04:31N 43°42' E 007°17'0 0.0
2014-Sep-27 03:25N 43°42' E 007°17'0 0.0
2014-Sep-27 02:31N 43°42' E 007°17'0 0.0
2014-Sep-27 01:31N 43°42' E 007°17'0 0.0
2014-Sep-27 00:31N 43°42' E 007°17'0 0.0
2014-Sep-26 23:31N 43°42' E 007°17'0 0.0
2014-Sep-26 18:25N 43°42' E 007°17'0 0.0
2014-Sep-26 17:07N 43°42' E 007°17'0 0.0
2014-Sep-26 15:13N 43°42' E 007°17'0 0.0
2014-Sep-26 14:25N 43°42' E 007°17'0 0.0
2014-Sep-26 13:31N 43°42' E 007°17'0 0.0
2014-Sep-26 12:31N 43°42' E 007°17'0 0.0
2014-Sep-26 11:13N 43°42' E 007°17'0 0.0
2014-Sep-26 10:31N 43°42' E 007°17'0 0.0
2014-Sep-26 04:25N 43°42' E 007°17'0 0.0
2014-Sep-26 02:25N 43°42' E 007°17'0 0.0
2014-Sep-26 01:25N 43°42' E 007°17'0 0.0
2014-Sep-25 17:19N 43°42' E 007°17'0 0.0
2014-Sep-25 16:31N 43°42' E 007°17'0 0.0
2014-Sep-25 15:25N 43°42' E 007°17'0 0.0
2014-Sep-25 14:31N 43°42' E 007°17'0 0.0
2014-Sep-25 13:25N 43°42' E 007°17'0 0.0
2014-Sep-25 12:31N 43°42' E 007°17'0 0.0
2014-Sep-25 11:31N 43°42' E 007°17'0 0.0
2014-Sep-25 10:25N 43°42' E 007°17'0 0.0
2014-Sep-25 09:25N 43°42' E 007°17'0 0.0
2014-Sep-24 17:13N 43°42' E 007°17'0 0.0
2014-Sep-24 16:31N 43°42' E 007°17'0 0.0
2014-Sep-24 15:31N 43°42' E 007°17'0 0.0
2014-Sep-24 14:31N 43°42' E 007°17'0 0.0
2014-Sep-24 13:31N 43°42' E 007°17'0 0.0
2014-Sep-24 12:31N 43°42' E 007°17'0 0.0
2014-Sep-24 11:25N 43°42' E 007°17'0 0.0
2014-Sep-24 09:31N 43°42' E 007°17'0 0.0
2014-Sep-24 07:18N 43°42' E 007°17'0 0.0
2014-Sep-24 06:06N 43°42' E 007°17'0 0.0
2014-Sep-23 18:30N 43°42' E 007°17'0 0.0
2014-Sep-23 17:30N 43°42' E 007°17'0 0.0
2014-Sep-23 16:24N 43°42' E 007°17'0 0.0
2014-Sep-23 15:30N 43°42' E 007°17'0 0.0
2014-Sep-23 13:30N 43°42' E 007°17'0 0.0
2014-Sep-23 12:24N 43°42' E 007°17'0 0.0
2014-Sep-23 07:31N 43°42' E 007°17'0 0.0
2014-Sep-23 05:33N 43°42' E 007°17'8 6.0
2014-Sep-23 04:10N 43°37' E 007°26'  
Track history (hours):
 
Tides and Currents Weather Stations Pressure Air Temp Water Temp Dewpoint Dewpoint Depression Visibility Wind Speed Wind Dir Waves Ship Positions

Talitha

Last reported at 2014-Oct-01 22:33 UTC. Time now 2014-Oct-02 00:31 UTC.
Position N 43°17' E 006°38'.

Length 80 m; draft 4.7 m.

Type: Pleasure craft. MMSI: 310051000.

Date/timePositionNaut miles runAvg speedWind from/ knotsBaromVisibWave heightAir tempDewpointWater temp
2014-Oct-01 22:33N 43°17' E 006°38'0 0.0
2014-Oct-01 21:09N 43°17' E 006°38'0 0.0
2014-Oct-01 19:21N 43°17' E 006°38'0 0.0
2014-Oct-01 18:27N 43°17' E 006°38'0 0.0
2014-Oct-01 17:27N 43°17' E 006°38'0 0.0
2014-Oct-01 16:33N 43°17' E 006°38'0 0.0
2014-Oct-01 15:33N 43°17' E 006°38'0 0.0
2014-Oct-01 14:33N 43°17' E 006°38'0 0.0
2014-Oct-01 13:27N 43°17' E 006°38'0 0.0
2014-Oct-01 11:33N 43°17' E 006°38'0 0.0
2014-Oct-01 08:27N 43°17' E 006°38'0 0.0
2014-Sep-30 12:17N 43°17' E 006°37'0 0.0
2014-Sep-30 11:32N 43°17' E 006°37'0 0.0
2014-Sep-30 10:14N 43°16' E 006°37'0 0.0
2014-Sep-30 09:20N 43°17' E 006°37'0 0.0
2014-Sep-30 08:11N 43°16' E 006°37'0 0.0
2014-Sep-30 07:12N 43°16' E 006°37'0 0.0
2014-Sep-30 06:30N 43°17' E 006°37'0 0.0
2014-Sep-30 05:05N 43°16' E 006°38'0 0.0
2014-Sep-30 01:29N 43°16' E 006°37'0 0.0
2014-Sep-29 23:32N 43°17' E 006°37'0 0.0
2014-Sep-29 22:17N 43°17' E 006°37'0 0.0
2014-Sep-29 21:23N 43°17' E 006°37'0 0.0
2014-Sep-29 20:26N 43°17' E 006°37'0 0.0
2014-Sep-29 19:32N 43°16' E 006°37'0 0.0
2014-Sep-29 17:17N 43°17' E 006°37'0 0.1
2014-Sep-29 16:26N 43°17' E 006°38'1 1.5
2014-Sep-29 15:27N 43°16' E 006°40'0 0.0
2014-Sep-29 14:24N 43°16' E 006°40'0 0.0
2014-Sep-29 13:33N 43°16' E 006°40'0 0.0
2014-Sep-29 12:33N 43°16' E 006°40'0 0.0
2014-Sep-29 11:33N 43°16' E 006°40'0 0.0
2014-Sep-29 10:33N 43°16' E 006°40'0 0.0
2014-Sep-29 09:27N 43°16' E 006°40'0 0.0
2014-Sep-29 08:27N 43°16' E 006°40'1 1.3
2014-Sep-29 07:20N 43°17' E 006°38'0 0.0
2014-Sep-29 05:17N 43°17' E 006°38'0 0.0
2014-Sep-29 04:11N 43°17' E 006°38'0 0.0
2014-Sep-29 03:23N 43°17' E 006°38'0 0.0
2014-Sep-29 02:11N 43°17' E 006°38'0 0.0
2014-Sep-29 01:32N 43°17' E 006°38'0 0.0
2014-Sep-29 00:17N 43°17' E 006°38'0 0.0
2014-Sep-28 23:29N 43°17' E 006°38'0 0.0
2014-Sep-28 22:26N 43°17' E 006°38'0 0.0
2014-Sep-28 21:29N 43°17' E 006°38'0 0.0
2014-Sep-28 19:23N 43°17' E 006°38'0 0.0
2014-Sep-28 17:23N 43°17' E 006°38'0 0.0
2014-Sep-28 16:29N 43°17' E 006°38'0 0.0
2014-Sep-28 15:29N 43°17' E 006°38'0 0.0
2014-Sep-28 14:23N 43°17' E 006°38'810.0
2014-Sep-28 13:34N 43°21' E 006°47'1312.6
2014-Sep-28 12:33N 43°28' E 007°02'1312.6
2014-Sep-28 11:33N 43°37' E 007°14'5 4.9
2014-Sep-28 10:31N 43°42' E 007°17'0 0.0
2014-Sep-28 06:13N 43°42' E 007°17'0 0.0
2014-Sep-28 05:31N 43°42' E 007°17'0 0.0
2014-Sep-28 04:25N 43°42' E 007°17'0 0.0
2014-Sep-28 03:31N 43°42' E 007°17'0 0.0
2014-Sep-28 02:31N 43°42' E 007°17'0 0.0
2014-Sep-28 01:31N 43°42' E 007°17'0 0.0
2014-Sep-28 00:31N 43°42' E 007°17'0 0.0
2014-Sep-27 23:25N 43°42' E 007°17'0 0.0
2014-Sep-27 22:31N 43°42' E 007°17'0 0.0
2014-Sep-27 21:31N 43°42' E 007°17'0 0.0
2014-Sep-27 20:25N 43°42' E 007°17'0 0.0
2014-Sep-27 19:31N 43°42' E 007°17'0 0.0
2014-Sep-27 18:25N 43°42' E 007°17'0 0.0
2014-Sep-27 17:19N 43°42' E 007°17'0 0.0
2014-Sep-27 16:25N 43°42' E 007°17'0 0.0
2014-Sep-27 15:31N 43°42' E 007°17'0 0.0
2014-Sep-27 14:19N 43°42' E 007°17'0 0.0
2014-Sep-27 11:25N 43°42' E 007°17'0 0.0
2014-Sep-27 10:31N 43°42' E 007°17'0 0.0
2014-Sep-27 07:07N 43°42' E 007°17'0 0.0
2014-Sep-27 06:31N 43°42' E 007°17'0 0.0
2014-Sep-27 05:25N 43°42' E 007°17'0 0.0
2014-Sep-27 04:31N 43°42' E 007°17'0 0.0
2014-Sep-27 03:25N 43°42' E 007°17'0 0.0
2014-Sep-27 02:31N 43°42' E 007°17'0 0.0
2014-Sep-27 01:31N 43°42' E 007°17'0 0.0
2014-Sep-27 00:31N 43°42' E 007°17'0 0.0
2014-Sep-26 23:31N 43°42' E 007°17'0 0.0
2014-Sep-26 18:25N 43°42' E 007°17'0 0.0
2014-Sep-26 17:07N 43°42' E 007°17'0 0.0
2014-Sep-26 15:13N 43°42' E 007°17'0 0.0
2014-Sep-26 14:25N 43°42' E 007°17'0 0.0
2014-Sep-26 13:31N 43°42' E 007°17'0 0.0
2014-Sep-26 12:31N 43°42' E 007°17'0 0.0
2014-Sep-26 11:13N 43°42' E 007°17'0 0.0
2014-Sep-26 10:31N 43°42' E 007°17'0 0.0
2014-Sep-26 04:25N 43°42' E 007°17'0 0.0
2014-Sep-26 02:25N 43°42' E 007°17'0 0.0
2014-Sep-26 01:25N 43°42' E 007°17'0 0.0
2014-Sep-25 17:19N 43°42' E 007°17'0 0.0
2014-Sep-25 16:31N 43°42' E 007°17'0 0.0
2014-Sep-25 15:25N 43°42' E 007°17'0 0.0
2014-Sep-25 14:31N 43°42' E 007°17'0 0.0
2014-Sep-25 13:25N 43°42' E 007°17'0 0.0
2014-Sep-25 12:31N 43°42' E 007°17'0 0.0
2014-Sep-25 11:31N 43°42' E 007°17'0 0.0
2014-Sep-25 10:25N 43°42' E 007°17'0 0.0
2014-Sep-25 09:25N 43°42' E 007°17'0 0.0
2014-Sep-24 17:13N 43°42' E 007°17'0 0.0
2014-Sep-24 16:31N 43°42' E 007°17'0 0.0
2014-Sep-24 15:31N 43°42' E 007°17'0 0.0
2014-Sep-24 14:31N 43°42' E 007°17'0 0.0
2014-Sep-24 13:31N 43°42' E 007°17'0 0.0
2014-Sep-24 12:31N 43°42' E 007°17'0 0.0
2014-Sep-24 11:25N 43°42' E 007°17'0 0.0
2014-Sep-24 09:31N 43°42' E 007°17'0 0.0
2014-Sep-24 07:18N 43°42' E 007°17'0 0.0
2014-Sep-24 06:06N 43°42' E 007°17'0 0.0
2014-Sep-23 18:30N 43°42' E 007°17'0 0.0
2014-Sep-23 17:30N 43°42' E 007°17'0 0.0
2014-Sep-23 16:24N 43°42' E 007°17'0 0.0
2014-Sep-23 15:30N 43°42' E 007°17'0 0.0
2014-Sep-23 13:30N 43°42' E 007°17'0 0.0
2014-Sep-23 12:24N 43°42' E 007°17'0 0.0
2014-Sep-23 07:31N 43°42' E 007°17'0 0.0
2014-Sep-23 05:33N 43°42' E 007°17'8 6.0
2014-Sep-23 04:10N 43°37' E 007°26'  

Dump ship's entire track history